sensor_id;sensor_type;location;lat;lon;timestamp;P1;durP1;ratioP1;P2;durP2;ratioP2
34988;SDS011;21192;40.182;44.516;2024-01-30T00:01:55;61.15;;;37.50;;
34988;SDS011;21192;40.182;44.516;2024-01-30T00:04:21;57.25;;;36.05;;
34988;SDS011;21192;40.182;44.516;2024-01-30T00:06:47;55.85;;;33.70;;
34988;SDS011;21192;40.182;44.516;2024-01-30T00:09:13;50.53;;;31.30;;
34988;SDS011;21192;40.182;44.516;2024-01-30T00:11:39;50.35;;;30.20;;
34988;SDS011;21192;40.182;44.516;2024-01-30T00:14:05;46.33;;;26.20;;
34988;SDS011;21192;40.182;44.516;2024-01-30T00:16:31;46.20;;;26.35;;
34988;SDS011;21192;40.182;44.516;2024-01-30T00:18:57;41.35;;;26.38;;
34988;SDS011;21192;40.182;44.516;2024-01-30T00:21:23;45.65;;;26.42;;
34988;SDS011;21192;40.182;44.516;2024-01-30T00:23:49;40.30;;;26.02;;
34988;SDS011;21192;40.182;44.516;2024-01-30T00:26:15;44.75;;;26.80;;
34988;SDS011;21192;40.182;44.516;2024-01-30T00:28:41;43.63;;;26.10;;
34988;SDS011;21192;40.182;44.516;2024-01-30T00:31:07;42.20;;;24.73;;
34988;SDS011;21192;40.182;44.516;2024-01-30T00:33:37;46.08;;;26.00;;
34988;SDS011;21192;40.182;44.516;2024-01-30T00:36:07;38.40;;;23.25;;
34988;SDS011;21192;40.182;44.516;2024-01-30T00:38:33;44.42;;;23.67;;
34988;SDS011;21192;40.182;44.516;2024-01-30T00:41:00;36.53;;;21.60;;
34988;SDS011;21192;40.182;44.516;2024-01-30T00:43:27;37.97;;;22.17;;
34988;SDS011;21192;40.182;44.516;2024-01-30T00:45:53;39.65;;;23.30;;
34988;SDS011;21192;40.182;44.516;2024-01-30T00:48:19;38.97;;;22.65;;
34988;SDS011;21192;40.182;44.516;2024-01-30T00:50:45;36.33;;;22.23;;
34988;SDS011;21192;40.182;44.516;2024-01-30T00:53:12;44.00;;;24.55;;
34988;SDS011;21192;40.182;44.516;2024-01-30T00:55:38;37.80;;;22.45;;
34988;SDS011;21192;40.182;44.516;2024-01-30T00:58:04;39.33;;;22.17;;
34988;SDS011;21192;40.182;44.516;2024-01-30T01:00:30;45.15;;;21.42;;
34988;SDS011;21192;40.182;44.516;2024-01-30T01:02:57;35.78;;;22.88;;
34988;SDS011;21192;40.182;44.516;2024-01-30T01:05:24;34.22;;;20.77;;
34988;SDS011;21192;40.182;44.516;2024-01-30T01:07:50;38.05;;;22.73;;
34988;SDS011;21192;40.182;44.516;2024-01-30T01:10:17;42.70;;;23.52;;
34988;SDS011;21192;40.182;44.516;2024-01-30T01:12:43;40.20;;;23.58;;
34988;SDS011;21192;40.182;44.516;2024-01-30T01:15:09;40.35;;;23.85;;
34988;SDS011;21192;40.182;44.516;2024-01-30T01:17:36;41.13;;;24.08;;
34988;SDS011;21192;40.182;44.516;2024-01-30T01:20:03;39.75;;;23.58;;
34988;SDS011;21192;40.182;44.516;2024-01-30T01:22:31;42.33;;;23.92;;
34988;SDS011;21192;40.182;44.516;2024-01-30T01:24:58;43.42;;;23.00;;
34988;SDS011;21192;40.182;44.516;2024-01-30T01:27:24;42.40;;;23.23;;
34988;SDS011;21192;40.182;44.516;2024-01-30T01:29:50;44.22;;;23.92;;
34988;SDS011;21192;40.182;44.516;2024-01-30T01:32:17;43.85;;;22.63;;
34988;SDS011;21192;40.182;44.516;2024-01-30T01:34:43;38.38;;;22.80;;
34988;SDS011;21192;40.182;44.516;2024-01-30T01:37:09;39.90;;;23.50;;
34988;SDS011;21192;40.182;44.516;2024-01-30T01:39:35;39.35;;;23.13;;
34988;SDS011;21192;40.182;44.516;2024-01-30T01:42:01;41.95;;;22.30;;
34988;SDS011;21192;40.182;44.516;2024-01-30T01:44:27;37.58;;;22.83;;
34988;SDS011;21192;40.182;44.516;2024-01-30T01:46:54;38.90;;;22.98;;
34988;SDS011;21192;40.182;44.516;2024-01-30T01:49:20;39.88;;;23.00;;
34988;SDS011;21192;40.182;44.516;2024-01-30T01:51:48;39.72;;;23.40;;
34988;SDS011;21192;40.182;44.516;2024-01-30T01:54:15;37.58;;;22.88;;
34988;SDS011;21192;40.182;44.516;2024-01-30T01:56:42;40.22;;;23.52;;
34988;SDS011;21192;40.182;44.516;2024-01-30T01:59:08;45.45;;;25.42;;
34988;SDS011;21192;40.182;44.516;2024-01-30T02:01:37;45.67;;;25.63;;
34988;SDS011;21192;40.182;44.516;2024-01-30T02:04:06;45.97;;;26.35;;
34988;SDS011;21192;40.182;44.516;2024-01-30T02:06:33;50.78;;;27.42;;
34988;SDS011;21192;40.182;44.516;2024-01-30T02:09:02;48.95;;;27.33;;
34988;SDS011;21192;40.182;44.516;2024-01-30T02:11:29;49.55;;;26.65;;
34988;SDS011;21192;40.182;44.516;2024-01-30T02:13:56;55.40;;;29.98;;
34988;SDS011;21192;40.182;44.516;2024-01-30T02:16:27;61.90;;;34.97;;
34988;SDS011;21192;40.182;44.516;2024-01-30T02:18:53;57.47;;;33.17;;
34988;SDS011;21192;40.182;44.516;2024-01-30T02:21:19;62.05;;;35.90;;
34988;SDS011;21192;40.182;44.516;2024-01-30T02:23:46;57.25;;;34.80;;
34988;SDS011;21192;40.182;44.516;2024-01-30T02:26:13;61.00;;;34.50;;
34988;SDS011;21192;40.182;44.516;2024-01-30T02:28:39;60.88;;;34.95;;
34988;SDS011;21192;40.182;44.516;2024-01-30T02:31:05;59.58;;;33.28;;
34988;SDS011;21192;40.182;44.516;2024-01-30T02:33:31;59.13;;;32.85;;
34988;SDS011;21192;40.182;44.516;2024-01-30T02:35:57;51.95;;;31.60;;
34988;SDS011;21192;40.182;44.516;2024-01-30T02:38:23;53.58;;;30.63;;
34988;SDS011;21192;40.182;44.516;2024-01-30T02:40:49;62.40;;;31.48;;
34988;SDS011;21192;40.182;44.516;2024-01-30T02:43:15;59.13;;;31.42;;
34988;SDS011;21192;40.182;44.516;2024-01-30T02:45:41;51.17;;;29.48;;
34988;SDS011;21192;40.182;44.516;2024-01-30T02:48:07;60.30;;;31.83;;
34988;SDS011;21192;40.182;44.516;2024-01-30T02:50:33;55.63;;;31.73;;
34988;SDS011;21192;40.182;44.516;2024-01-30T02:53:00;51.67;;;30.30;;
34988;SDS011;21192;40.182;44.516;2024-01-30T02:55:26;60.70;;;31.40;;
34988;SDS011;21192;40.182;44.516;2024-01-30T02:57:51;53.60;;;31.17;;
34988;SDS011;21192;40.182;44.516;2024-01-30T03:00:18;55.15;;;31.80;;
34988;SDS011;21192;40.182;44.516;2024-01-30T03:02:44;55.03;;;31.10;;
34988;SDS011;21192;40.182;44.516;2024-01-30T03:05:10;52.22;;;31.15;;
34988;SDS011;21192;40.182;44.516;2024-01-30T03:07:37;55.35;;;31.73;;
34988;SDS011;21192;40.182;44.516;2024-01-30T03:10:04;51.70;;;30.67;;
34988;SDS011;21192;40.182;44.516;2024-01-30T03:12:31;60.72;;;31.85;;
34988;SDS011;21192;40.182;44.516;2024-01-30T03:14:57;52.80;;;31.35;;
34988;SDS011;21192;40.182;44.516;2024-01-30T03:17:23;50.13;;;31.17;;
34988;SDS011;21192;40.182;44.516;2024-01-30T03:19:49;54.60;;;30.77;;
34988;SDS011;21192;40.182;44.516;2024-01-30T03:22:15;49.17;;;30.77;;
34988;SDS011;21192;40.182;44.516;2024-01-30T03:24:41;50.45;;;30.75;;
34988;SDS011;21192;40.182;44.516;2024-01-30T03:27:07;53.83;;;32.28;;
34988;SDS011;21192;40.182;44.516;2024-01-30T03:29:33;52.85;;;32.50;;
34988;SDS011;21192;40.182;44.516;2024-01-30T03:31:59;55.20;;;32.53;;
34988;SDS011;21192;40.182;44.516;2024-01-30T03:34:25;56.70;;;31.92;;
34988;SDS011;21192;40.182;44.516;2024-01-30T03:36:51;50.97;;;31.92;;
34988;SDS011;21192;40.182;44.516;2024-01-30T03:39:17;49.70;;;30.70;;
34988;SDS011;21192;40.182;44.516;2024-01-30T03:41:43;57.88;;;32.08;;
34988;SDS011;21192;40.182;44.516;2024-01-30T03:44:09;56.10;;;33.85;;
34988;SDS011;21192;40.182;44.516;2024-01-30T03:46:35;55.33;;;33.13;;
34988;SDS011;21192;40.182;44.516;2024-01-30T03:49:02;53.50;;;32.75;;
34988;SDS011;21192;40.182;44.516;2024-01-30T03:51:28;55.70;;;30.73;;
34988;SDS011;21192;40.182;44.516;2024-01-30T03:53:54;61.42;;;33.92;;
34988;SDS011;21192;40.182;44.516;2024-01-30T03:56:20;64.35;;;34.80;;
34988;SDS011;21192;40.182;44.516;2024-01-30T03:58:45;54.08;;;33.47;;
34988;SDS011;21192;40.182;44.516;2024-01-30T04:01:14;59.67;;;36.17;;
34988;SDS011;21192;40.182;44.516;2024-01-30T04:03:40;56.38;;;35.97;;
34988;SDS011;21192;40.182;44.516;2024-01-30T04:06:07;53.65;;;35.00;;
34988;SDS011;21192;40.182;44.516;2024-01-30T04:08:33;59.72;;;36.83;;
34988;SDS011;21192;40.182;44.516;2024-01-30T04:11:03;58.17;;;35.92;;
34988;SDS011;21192;40.182;44.516;2024-01-30T04:13:33;54.38;;;33.90;;
34988;SDS011;21192;40.182;44.516;2024-01-30T04:15:59;56.10;;;34.60;;
34988;SDS011;21192;40.182;44.516;2024-01-30T04:18:28;61.92;;;35.75;;
34988;SDS011;21192;40.182;44.516;2024-01-30T04:20:54;61.60;;;37.47;;
34988;SDS011;21192;40.182;44.516;2024-01-30T04:23:21;61.90;;;36.72;;
34988;SDS011;21192;40.182;44.516;2024-01-30T04:25:46;61.30;;;37.72;;
34988;SDS011;21192;40.182;44.516;2024-01-30T04:28:12;61.65;;;37.40;;
34988;SDS011;21192;40.182;44.516;2024-01-30T04:30:38;59.55;;;37.47;;
34988;SDS011;21192;40.182;44.516;2024-01-30T04:33:04;63.75;;;39.58;;
34988;SDS011;21192;40.182;44.516;2024-01-30T04:35:30;61.28;;;38.70;;
34988;SDS011;21192;40.182;44.516;2024-01-30T04:37:56;65.45;;;41.85;;
34988;SDS011;21192;40.182;44.516;2024-01-30T04:40:22;64.28;;;41.55;;
34988;SDS011;21192;40.182;44.516;2024-01-30T04:42:48;66.38;;;42.25;;
34988;SDS011;21192;40.182;44.516;2024-01-30T04:45:14;70.47;;;41.00;;
34988;SDS011;21192;40.182;44.516;2024-01-30T04:47:40;68.72;;;43.42;;
34988;SDS011;21192;40.182;44.516;2024-01-30T04:50:06;68.28;;;43.20;;
34988;SDS011;21192;40.182;44.516;2024-01-30T04:52:33;67.57;;;43.67;;
34988;SDS011;21192;40.182;44.516;2024-01-30T04:55:00;75.07;;;45.08;;
34988;SDS011;21192;40.182;44.516;2024-01-30T04:57:25;76.03;;;45.42;;
34988;SDS011;21192;40.182;44.516;2024-01-30T04:59:51;74.97;;;47.20;;
34988;SDS011;21192;40.182;44.516;2024-01-30T05:02:17;77.93;;;46.78;;
34988;SDS011;21192;40.182;44.516;2024-01-30T05:04:43;82.88;;;46.95;;
34988;SDS011;21192;40.182;44.516;2024-01-30T05:07:09;78.32;;;47.55;;
34988;SDS011;21192;40.182;44.516;2024-01-30T05:09:35;75.40;;;45.28;;
34988;SDS011;21192;40.182;44.516;2024-01-30T05:12:01;79.30;;;45.70;;
34988;SDS011;21192;40.182;44.516;2024-01-30T05:14:27;77.22;;;46.40;;
34988;SDS011;21192;40.182;44.516;2024-01-30T05:16:53;79.03;;;46.75;;
34988;SDS011;21192;40.182;44.516;2024-01-30T05:19:19;73.70;;;45.42;;
34988;SDS011;21192;40.182;44.516;2024-01-30T05:21:46;74.95;;;46.97;;
34988;SDS011;21192;40.182;44.516;2024-01-30T05:24:12;78.75;;;47.70;;
34988;SDS011;21192;40.182;44.516;2024-01-30T05:26:38;83.53;;;49.92;;
34988;SDS011;21192;40.182;44.516;2024-01-30T05:29:04;82.65;;;49.95;;
34988;SDS011;21192;40.182;44.516;2024-01-30T05:31:31;84.50;;;50.22;;
34988;SDS011;21192;40.182;44.516;2024-01-30T05:33:57;79.82;;;50.13;;
34988;SDS011;21192;40.182;44.516;2024-01-30T05:36:23;86.25;;;51.78;;
34988;SDS011;21192;40.182;44.516;2024-01-30T05:38:49;88.97;;;51.65;;
34988;SDS011;21192;40.182;44.516;2024-01-30T05:41:15;90.57;;;53.83;;
34988;SDS011;21192;40.182;44.516;2024-01-30T05:43:41;95.80;;;54.20;;
34988;SDS011;21192;40.182;44.516;2024-01-30T05:46:07;96.90;;;55.38;;
34988;SDS011;21192;40.182;44.516;2024-01-30T05:48:32;87.53;;;55.28;;
34988;SDS011;21192;40.182;44.516;2024-01-30T05:51:00;89.68;;;55.53;;
34988;SDS011;21192;40.182;44.516;2024-01-30T05:53:27;93.13;;;55.17;;
34988;SDS011;21192;40.182;44.516;2024-01-30T05:55:53;91.70;;;56.45;;
34988;SDS011;21192;40.182;44.516;2024-01-30T05:58:18;92.63;;;57.90;;
34988;SDS011;21192;40.182;44.516;2024-01-30T06:00:44;88.50;;;53.50;;
34988;SDS011;21192;40.182;44.516;2024-01-30T06:03:10;87.68;;;53.97;;
34988;SDS011;21192;40.182;44.516;2024-01-30T06:05:36;81.18;;;51.30;;
34988;SDS011;21192;40.182;44.516;2024-01-30T06:08:02;88.47;;;54.08;;
34988;SDS011;21192;40.182;44.516;2024-01-30T06:10:28;79.10;;;51.58;;
34988;SDS011;21192;40.182;44.516;2024-01-30T06:12:54;77.30;;;52.58;;
34988;SDS011;21192;40.182;44.516;2024-01-30T06:15:19;79.88;;;51.30;;
34988;SDS011;21192;40.182;44.516;2024-01-30T06:17:45;85.20;;;54.58;;
34988;SDS011;21192;40.182;44.516;2024-01-30T06:20:11;91.05;;;53.90;;
34988;SDS011;21192;40.182;44.516;2024-01-30T06:22:37;87.88;;;56.10;;
34988;SDS011;21192;40.182;44.516;2024-01-30T06:25:03;94.00;;;57.92;;
34988;SDS011;21192;40.182;44.516;2024-01-30T06:27:29;85.70;;;53.25;;
34988;SDS011;21192;40.182;44.516;2024-01-30T06:29:55;81.57;;;52.92;;
34988;SDS011;21192;40.182;44.516;2024-01-30T06:32:21;79.85;;;50.97;;
34988;SDS011;21192;40.182;44.516;2024-01-30T06:34:47;76.03;;;48.95;;
34988;SDS011;21192;40.182;44.516;2024-01-30T06:37:13;70.93;;;45.13;;
34988;SDS011;21192;40.182;44.516;2024-01-30T06:39:38;66.70;;;44.40;;
34988;SDS011;21192;40.182;44.516;2024-01-30T06:42:04;71.05;;;44.78;;
34988;SDS011;21192;40.182;44.516;2024-01-30T06:44:30;70.50;;;44.60;;
34988;SDS011;21192;40.182;44.516;2024-01-30T06:46:56;66.70;;;43.28;;
34988;SDS011;21192;40.182;44.516;2024-01-30T06:49:22;75.47;;;47.50;;
34988;SDS011;21192;40.182;44.516;2024-01-30T06:51:48;68.85;;;45.80;;
34988;SDS011;21192;40.182;44.516;2024-01-30T06:54:13;78.38;;;49.00;;
34988;SDS011;21192;40.182;44.516;2024-01-30T06:56:39;84.47;;;52.55;;
34988;SDS011;21192;40.182;44.516;2024-01-30T06:59:06;85.90;;;53.00;;
34988;SDS011;21192;40.182;44.516;2024-01-30T07:01:32;91.72;;;56.50;;
34988;SDS011;21192;40.182;44.516;2024-01-30T07:03:57;90.68;;;57.35;;
34988;SDS011;21192;40.182;44.516;2024-01-30T07:06:23;98.35;;;59.95;;
34988;SDS011;21192;40.182;44.516;2024-01-30T07:08:49;94.55;;;60.80;;
34988;SDS011;21192;40.182;44.516;2024-01-30T07:11:19;86.53;;;58.15;;
34988;SDS011;21192;40.182;44.516;2024-01-30T07:13:50;89.55;;;58.83;;
34988;SDS011;21192;40.182;44.516;2024-01-30T07:16:16;91.63;;;59.10;;
34988;SDS011;21192;40.182;44.516;2024-01-30T07:18:43;86.95;;;57.05;;
34988;SDS011;21192;40.182;44.516;2024-01-30T07:21:09;87.53;;;58.13;;
34988;SDS011;21192;40.182;44.516;2024-01-30T07:23:35;90.35;;;59.80;;
34988;SDS011;21192;40.182;44.516;2024-01-30T07:26:04;89.38;;;57.80;;
34988;SDS011;21192;40.182;44.516;2024-01-30T07:28:31;95.35;;;59.17;;
34988;SDS011;21192;40.182;44.516;2024-01-30T07:30:58;94.18;;;60.45;;
34988;SDS011;21192;40.182;44.516;2024-01-30T07:33:24;91.82;;;58.67;;
34988;SDS011;21192;40.182;44.516;2024-01-30T07:35:51;96.32;;;62.65;;
34988;SDS011;21192;40.182;44.516;2024-01-30T07:38:18;95.47;;;61.08;;
34988;SDS011;21192;40.182;44.516;2024-01-30T07:40:44;97.75;;;60.47;;
34988;SDS011;21192;40.182;44.516;2024-01-30T07:43:10;92.97;;;61.15;;
34988;SDS011;21192;40.182;44.516;2024-01-30T07:45:36;93.00;;;59.53;;
34988;SDS011;21192;40.182;44.516;2024-01-30T07:48:04;95.03;;;61.15;;
34988;SDS011;21192;40.182;44.516;2024-01-30T07:50:33;88.10;;;56.70;;
34988;SDS011;21192;40.182;44.516;2024-01-30T07:52:59;93.50;;;60.13;;
34988;SDS011;21192;40.182;44.516;2024-01-30T07:55:25;92.47;;;59.40;;
34988;SDS011;21192;40.182;44.516;2024-01-30T07:57:56;90.47;;;60.83;;
34988;SDS011;21192;40.182;44.516;2024-01-30T08:00:23;96.50;;;60.38;;
34988;SDS011;21192;40.182;44.516;2024-01-30T08:02:49;101.60;;;62.47;;
34988;SDS011;21192;40.182;44.516;2024-01-30T08:05:15;95.80;;;64.78;;
34988;SDS011;21192;40.182;44.516;2024-01-30T08:07:41;100.75;;;66.70;;
34988;SDS011;21192;40.182;44.516;2024-01-30T08:10:08;102.43;;;68.25;;
34988;SDS011;21192;40.182;44.516;2024-01-30T08:12:34;107.20;;;65.22;;
34988;SDS011;21192;40.182;44.516;2024-01-30T08:15:00;100.07;;;64.43;;
34988;SDS011;21192;40.182;44.516;2024-01-30T08:17:26;113.78;;;70.90;;
34988;SDS011;21192;40.182;44.516;2024-01-30T08:19:52;95.10;;;61.78;;
34988;SDS011;21192;40.182;44.516;2024-01-30T08:22:17;89.10;;;56.90;;
34988;SDS011;21192;40.182;44.516;2024-01-30T08:24:43;92.22;;;58.85;;
34988;SDS011;21192;40.182;44.516;2024-01-30T08:27:09;85.05;;;57.15;;
34988;SDS011;21192;40.182;44.516;2024-01-30T08:29:35;89.05;;;56.85;;
34988;SDS011;21192;40.182;44.516;2024-01-30T08:32:01;86.82;;;55.75;;
34988;SDS011;21192;40.182;44.516;2024-01-30T08:34:27;83.25;;;54.35;;
34988;SDS011;21192;40.182;44.516;2024-01-30T08:36:53;82.80;;;52.47;;
34988;SDS011;21192;40.182;44.516;2024-01-30T08:39:19;85.65;;;54.42;;
34988;SDS011;21192;40.182;44.516;2024-01-30T08:41:45;89.07;;;57.53;;
34988;SDS011;21192;40.182;44.516;2024-01-30T08:44:11;86.57;;;57.13;;
34988;SDS011;21192;40.182;44.516;2024-01-30T08:46:37;89.78;;;58.25;;
34988;SDS011;21192;40.182;44.516;2024-01-30T08:49:02;91.75;;;59.70;;
34988;SDS011;21192;40.182;44.516;2024-01-30T08:51:31;91.63;;;56.67;;
34988;SDS011;21192;40.182;44.516;2024-01-30T08:53:57;90.13;;;57.00;;
34988;SDS011;21192;40.182;44.516;2024-01-30T08:56:23;83.50;;;54.72;;
34988;SDS011;21192;40.182;44.516;2024-01-30T08:58:48;87.03;;;55.67;;
34988;SDS011;21192;40.182;44.516;2024-01-30T09:01:14;89.35;;;56.45;;
34988;SDS011;21192;40.182;44.516;2024-01-30T09:03:41;86.57;;;55.03;;
34988;SDS011;21192;40.182;44.516;2024-01-30T09:06:08;84.80;;;54.28;;
34988;SDS011;21192;40.182;44.516;2024-01-30T09:08:35;80.88;;;52.05;;
34988;SDS011;21192;40.182;44.516;2024-01-30T09:11:02;78.97;;;52.15;;
34988;SDS011;21192;40.182;44.516;2024-01-30T09:13:35;79.85;;;52.40;;
34988;SDS011;21192;40.182;44.516;2024-01-30T09:16:01;77.05;;;52.90;;
34988;SDS011;21192;40.182;44.516;2024-01-30T09:18:26;78.38;;;53.15;;
34988;SDS011;21192;40.182;44.516;2024-01-30T09:20:52;79.30;;;53.13;;
34988;SDS011;21192;40.182;44.516;2024-01-30T09:23:18;71.25;;;51.03;;
34988;SDS011;21192;40.182;44.516;2024-01-30T09:25:44;79.68;;;53.33;;
34988;SDS011;21192;40.182;44.516;2024-01-30T09:28:11;90.05;;;56.47;;
34988;SDS011;21192;40.182;44.516;2024-01-30T09:30:36;90.30;;;55.80;;
34988;SDS011;21192;40.182;44.516;2024-01-30T09:33:02;83.47;;;56.83;;
34988;SDS011;21192;40.182;44.516;2024-01-30T09:35:28;76.03;;;50.63;;
34988;SDS011;21192;40.182;44.516;2024-01-30T09:37:55;80.40;;;54.47;;
34988;SDS011;21192;40.182;44.516;2024-01-30T09:40:22;80.03;;;50.67;;
34988;SDS011;21192;40.182;44.516;2024-01-30T09:42:48;73.57;;;49.53;;
34988;SDS011;21192;40.182;44.516;2024-01-30T09:45:19;74.68;;;49.45;;
34988;SDS011;21192;40.182;44.516;2024-01-30T09:47:45;70.35;;;47.67;;
34988;SDS011;21192;40.182;44.516;2024-01-30T09:50:12;75.10;;;49.50;;
34988;SDS011;21192;40.182;44.516;2024-01-30T09:52:39;65.63;;;44.50;;
34988;SDS011;21192;40.182;44.516;2024-01-30T09:55:06;65.07;;;44.35;;
34988;SDS011;21192;40.182;44.516;2024-01-30T09:57:33;82.40;;;53.67;;
34988;SDS011;21192;40.182;44.516;2024-01-30T09:59:59;80.90;;;50.60;;
34988;SDS011;21192;40.182;44.516;2024-01-30T10:02:25;82.25;;;56.42;;
34988;SDS011;21192;40.182;44.516;2024-01-30T10:04:51;108.10;;;70.88;;
34988;SDS011;21192;40.182;44.516;2024-01-30T10:07:18;78.35;;;52.10;;
34988;SDS011;21192;40.182;44.516;2024-01-30T10:09:44;74.80;;;50.67;;
34988;SDS011;21192;40.182;44.516;2024-01-30T10:12:11;77.70;;;51.35;;
34988;SDS011;21192;40.182;44.516;2024-01-30T10:14:40;67.60;;;45.65;;
34988;SDS011;21192;40.182;44.516;2024-01-30T10:17:10;68.15;;;44.03;;
34988;SDS011;21192;40.182;44.516;2024-01-30T10:19:39;68.07;;;44.58;;
34988;SDS011;21192;40.182;44.516;2024-01-30T10:22:06;69.65;;;44.88;;
34988;SDS011;21192;40.182;44.516;2024-01-30T10:24:36;70.00;;;44.53;;
34988;SDS011;21192;40.182;44.516;2024-01-30T10:27:02;64.05;;;43.17;;
34988;SDS011;21192;40.182;44.516;2024-01-30T10:29:28;62.83;;;44.25;;
34988;SDS011;21192;40.182;44.516;2024-01-30T10:32:00;62.75;;;44.55;;
34988;SDS011;21192;40.182;44.516;2024-01-30T10:34:27;67.60;;;44.38;;
34988;SDS011;21192;40.182;44.516;2024-01-30T10:39:32;68.80;;;46.70;;
34988;SDS011;21192;40.182;44.516;2024-01-30T10:42:04;67.13;;;46.72;;
34988;SDS011;21192;40.182;44.516;2024-01-30T10:44:36;71.13;;;47.38;;
34988;SDS011;21192;40.182;44.516;2024-01-30T10:47:11;69.85;;;47.20;;
34988;SDS011;21192;40.182;44.516;2024-01-30T10:49:40;70.43;;;48.63;;
34988;SDS011;21192;40.182;44.516;2024-01-30T10:52:11;61.33;;;43.95;;
34988;SDS011;21192;40.182;44.516;2024-01-30T10:54:40;65.03;;;44.65;;
34988;SDS011;21192;40.182;44.516;2024-01-30T10:57:09;64.25;;;44.40;;
34988;SDS011;21192;40.182;44.516;2024-01-30T10:59:38;63.13;;;42.85;;
34988;SDS011;21192;40.182;44.516;2024-01-30T11:02:04;65.00;;;41.78;;
34988;SDS011;21192;40.182;44.516;2024-01-30T11:04:38;59.80;;;37.90;;
34988;SDS011;21192;40.182;44.516;2024-01-30T11:07:18;61.72;;;40.33;;
34988;SDS011;21192;40.182;44.516;2024-01-30T11:10:07;64.90;;;43.35;;
34988;SDS011;21192;40.182;44.516;2024-01-30T11:12:38;64.28;;;41.85;;
34988;SDS011;21192;40.182;44.516;2024-01-30T11:15:11;60.63;;;40.05;;
34988;SDS011;21192;40.182;44.516;2024-01-30T11:18:00;62.67;;;42.17;;
34988;SDS011;21192;40.182;44.516;2024-01-30T11:20:27;62.08;;;39.90;;
34988;SDS011;21192;40.182;44.516;2024-01-30T11:22:56;63.15;;;43.92;;
34988;SDS011;21192;40.182;44.516;2024-01-30T11:25:23;55.05;;;38.58;;
34988;SDS011;21192;40.182;44.516;2024-01-30T11:27:50;61.97;;;39.72;;
34988;SDS011;21192;40.182;44.516;2024-01-30T11:33:48;59.80;;;40.72;;
34988;SDS011;21192;40.182;44.516;2024-01-30T11:35:56;63.92;;;40.97;;
34988;SDS011;21192;40.182;44.516;2024-01-30T11:38:27;66.82;;;44.00;;
34988;SDS011;21192;40.182;44.516;2024-01-30T11:40:56;71.75;;;46.17;;
34988;SDS011;21192;40.182;44.516;2024-01-30T11:43:22;57.65;;;39.55;;
34988;SDS011;21192;40.182;44.516;2024-01-30T11:45:48;70.40;;;45.95;;
34988;SDS011;21192;40.182;44.516;2024-01-30T11:48:15;57.65;;;38.60;;
34988;SDS011;21192;40.182;44.516;2024-01-30T11:50:41;51.58;;;34.95;;
34988;SDS011;21192;40.182;44.516;2024-01-30T11:53:07;54.00;;;36.20;;
34988;SDS011;21192;40.182;44.516;2024-01-30T11:55:33;54.03;;;38.85;;
34988;SDS011;21192;40.182;44.516;2024-01-30T11:58:02;56.13;;;38.25;;
34988;SDS011;21192;40.182;44.516;2024-01-30T12:00:29;54.15;;;36.50;;
34988;SDS011;21192;40.182;44.516;2024-01-30T12:02:56;51.72;;;34.63;;
34988;SDS011;21192;40.182;44.516;2024-01-30T12:05:25;55.33;;;36.95;;
34988;SDS011;21192;40.182;44.516;2024-01-30T12:07:52;48.03;;;33.97;;
34988;SDS011;21192;40.182;44.516;2024-01-30T12:10:18;47.42;;;34.00;;
34988;SDS011;21192;40.182;44.516;2024-01-30T12:12:47;49.60;;;33.25;;
34988;SDS011;21192;40.182;44.516;2024-01-30T12:15:16;50.20;;;34.42;;
34988;SDS011;21192;40.182;44.516;2024-01-30T12:17:44;52.33;;;33.83;;
34988;SDS011;21192;40.182;44.516;2024-01-30T12:20:10;50.65;;;33.92;;
34988;SDS011;21192;40.182;44.516;2024-01-30T12:22:38;54.80;;;35.28;;
34988;SDS011;21192;40.182;44.516;2024-01-30T12:25:09;51.20;;;36.90;;
34988;SDS011;21192;40.182;44.516;2024-01-30T12:27:45;53.70;;;35.95;;
34988;SDS011;21192;40.182;44.516;2024-01-30T12:30:15;55.63;;;36.67;;
34988;SDS011;21192;40.182;44.516;2024-01-30T12:32:43;54.30;;;38.75;;
34988;SDS011;21192;40.182;44.516;2024-01-30T12:35:11;59.08;;;38.60;;
34988;SDS011;21192;40.182;44.516;2024-01-30T12:37:38;60.65;;;39.70;;
34988;SDS011;21192;40.182;44.516;2024-01-30T12:40:05;54.25;;;37.72;;
34988;SDS011;21192;40.182;44.516;2024-01-30T12:42:32;57.95;;;40.60;;
34988;SDS011;21192;40.182;44.516;2024-01-30T12:44:58;60.28;;;39.10;;
34988;SDS011;21192;40.182;44.516;2024-01-30T12:47:24;65.93;;;42.97;;
34988;SDS011;21192;40.182;44.516;2024-01-30T12:49:51;63.92;;;43.03;;
34988;SDS011;21192;40.182;44.516;2024-01-30T12:52:20;57.60;;;41.17;;
34988;SDS011;21192;40.182;44.516;2024-01-30T12:54:47;61.78;;;43.08;;
34988;SDS011;21192;40.182;44.516;2024-01-30T12:57:14;66.40;;;43.50;;
34988;SDS011;21192;40.182;44.516;2024-01-30T12:59:40;64.20;;;43.83;;
34988;SDS011;21192;40.182;44.516;2024-01-30T13:02:06;62.92;;;41.75;;
34988;SDS011;21192;40.182;44.516;2024-01-30T13:04:32;64.95;;;44.55;;
34988;SDS011;21192;40.182;44.516;2024-01-30T13:06:58;66.82;;;44.53;;
34988;SDS011;21192;40.182;44.516;2024-01-30T13:09:25;67.80;;;45.10;;
34988;SDS011;21192;40.182;44.516;2024-01-30T13:11:51;66.57;;;46.67;;
34988;SDS011;21192;40.182;44.516;2024-01-30T13:14:18;74.10;;;48.60;;
34988;SDS011;21192;40.182;44.516;2024-01-30T13:16:44;75.80;;;51.88;;
34988;SDS011;21192;40.182;44.516;2024-01-30T13:19:10;68.78;;;47.22;;
34988;SDS011;21192;40.182;44.516;2024-01-30T13:21:36;73.22;;;50.78;;
34988;SDS011;21192;40.182;44.516;2024-01-30T13:24:02;68.18;;;46.25;;
34988;SDS011;21192;40.182;44.516;2024-01-30T13:26:28;68.97;;;45.20;;
34988;SDS011;21192;40.182;44.516;2024-01-30T13:28:55;72.13;;;46.83;;
34988;SDS011;21192;40.182;44.516;2024-01-30T13:31:21;68.70;;;47.10;;
34988;SDS011;21192;40.182;44.516;2024-01-30T13:33:47;67.82;;;45.30;;
34988;SDS011;21192;40.182;44.516;2024-01-30T13:36:14;68.20;;;45.70;;
34988;SDS011;21192;40.182;44.516;2024-01-30T13:38:40;66.88;;;45.22;;
34988;SDS011;21192;40.182;44.516;2024-01-30T13:41:06;67.75;;;45.08;;
34988;SDS011;21192;40.182;44.516;2024-01-30T13:43:32;68.72;;;44.33;;
34988;SDS011;21192;40.182;44.516;2024-01-30T13:45:58;68.05;;;45.28;;
34988;SDS011;21192;40.182;44.516;2024-01-30T13:48:24;65.82;;;44.40;;
34988;SDS011;21192;40.182;44.516;2024-01-30T13:50:50;68.15;;;45.60;;
34988;SDS011;21192;40.182;44.516;2024-01-30T13:53:16;69.55;;;45.88;;
34988;SDS011;21192;40.182;44.516;2024-01-30T13:55:42;68.22;;;44.45;;
34988;SDS011;21192;40.182;44.516;2024-01-30T13:58:08;59.75;;;40.20;;
34988;SDS011;21192;40.182;44.516;2024-01-30T14:00:34;68.65;;;44.53;;
34988;SDS011;21192;40.182;44.516;2024-01-30T14:03:00;65.18;;;45.47;;
34988;SDS011;21192;40.182;44.516;2024-01-30T14:05:26;67.75;;;45.58;;
34988;SDS011;21192;40.182;44.516;2024-01-30T14:07:53;66.55;;;43.67;;
34988;SDS011;21192;40.182;44.516;2024-01-30T14:10:19;65.60;;;42.70;;
34988;SDS011;21192;40.182;44.516;2024-01-30T14:12:45;66.13;;;43.22;;